createdAt,value
2022-12-22T00:00:43.357Z,1004.56
2022-12-22T00:01:49.641Z,1004.60
2022-12-22T00:02:44.559Z,1004.60
2022-12-22T00:03:43.462Z,1004.63
2022-12-22T00:04:43.311Z,1004.66
2022-12-22T00:05:43.323Z,1004.60
2022-12-22T00:06:43.295Z,1004.54
2022-12-22T00:07:43.283Z,1004.56
2022-12-22T00:08:43.265Z,1004.56
2022-12-22T00:09:43.255Z,1004.57
2022-12-22T00:10:43.249Z,1004.59
2022-12-22T00:11:43.280Z,1004.57
2022-12-22T00:12:43.223Z,1004.54
2022-12-22T00:13:43.222Z,1004.59
2022-12-22T00:14:43.200Z,1004.59
2022-12-22T00:15:43.205Z,1004.60
2022-12-22T00:16:43.295Z,1004.63
2022-12-22T00:17:43.171Z,1004.64
2022-12-22T00:18:43.155Z,1004.61
2022-12-22T00:19:43.144Z,1004.60
2022-12-22T00:20:43.139Z,1004.61
2022-12-22T00:21:43.141Z,1004.60
2022-12-22T00:22:43.123Z,1004.58
2022-12-22T00:23:43.146Z,1004.53
2022-12-22T00:24:43.101Z,1004.47
2022-12-22T00:25:43.112Z,1004.45
2022-12-22T00:26:43.072Z,1004.47
2022-12-22T00:27:45.738Z,1004.49
2022-12-22T00:28:43.071Z,1004.51
2022-12-22T00:29:43.058Z,1004.54
2022-12-22T00:30:43.099Z,1004.52
2022-12-22T00:31:43.030Z,1004.46
2022-12-22T00:32:43.016Z,1004.40
2022-12-22T00:33:42.993Z,1004.39
2022-12-22T00:34:42.979Z,1004.42
2022-12-22T00:35:42.986Z,1004.47
2022-12-22T00:36:42.950Z,1004.48
2022-12-22T00:37:42.946Z,1004.46
2022-12-22T00:38:42.930Z,1004.42
2022-12-22T00:39:42.922Z,1004.40
2022-12-22T00:40:42.908Z,1004.41
2022-12-22T00:41:42.918Z,1004.47
2022-12-22T00:42:42.887Z,1004.49
2022-12-22T00:43:42.900Z,1004.43
2022-12-22T00:44:42.876Z,1004.40
2022-12-22T00:45:42.887Z,1004.38
2022-12-22T00:46:42.846Z,1004.38
2022-12-22T00:47:42.840Z,1004.36
2022-12-22T00:48:42.821Z,1004.44
2022-12-22T00:49:42.813Z,1004.44
2022-12-22T00:50:42.798Z,1004.41
2022-12-22T00:51:42.795Z,1004.39
2022-12-22T00:52:42.771Z,1004.34
2022-12-22T00:53:42.769Z,1004.29
2022-12-22T00:54:42.754Z,1004.26
2022-12-22T00:55:42.747Z,1004.27
2022-12-22T00:56:42.735Z,1004.34
2022-12-22T00:57:42.718Z,1004.39
2022-12-22T00:58:42.710Z,1004.38
2022-12-22T00:59:42.744Z,1004.35
2022-12-22T01:00:42.688Z,1004.28
2022-12-22T01:01:42.794Z,1004.25
2022-12-22T01:02:42.789Z,1004.23
2022-12-22T01:03:42.687Z,1004.18
2022-12-22T01:04:42.641Z,1004.17
2022-12-22T01:05:42.638Z,1004.30
2022-12-22T01:06:42.619Z,1004.23
2022-12-22T01:07:42.607Z,1004.25
2022-12-22T01:08:42.601Z,1004.33
2022-12-22T01:09:42.593Z,1004.28
2022-12-22T01:10:42.576Z,1004.29
2022-12-22T01:11:42.572Z,1004.29
2022-12-22T01:12:42.558Z,1004.23
2022-12-22T01:13:42.540Z,1004.23
2022-12-22T01:14:42.526Z,1004.22
2022-12-22T01:15:42.623Z,1004.19
2022-12-22T01:16:42.507Z,1004.19
2022-12-22T01:17:42.543Z,1004.19
2022-12-22T01:18:42.485Z,1004.18
2022-12-22T01:19:42.477Z,1004.18
2022-12-22T01:20:42.461Z,1004.17
2022-12-22T01:21:42.452Z,1004.18
2022-12-22T01:22:42.437Z,1004.18
2022-12-22T01:23:42.438Z,1004.18
2022-12-22T01:24:42.417Z,1004.18
2022-12-22T01:25:42.407Z,1004.15
2022-12-22T01:26:42.408Z,1004.12
2022-12-22T01:27:42.381Z,1004.14
2022-12-22T01:28:42.372Z,1004.13
2022-12-22T01:29:42.370Z,1004.10
2022-12-22T01:30:42.366Z,1004.08
2022-12-22T01:31:42.356Z,1004.01
2022-12-22T01:32:42.331Z,1004.01
2022-12-22T01:33:42.314Z,1003.98
2022-12-22T01:34:42.307Z,1003.96
2022-12-22T01:35:42.329Z,1003.95
2022-12-22T01:36:42.290Z,1003.94
2022-12-22T01:37:42.277Z,1003.94
2022-12-22T01:38:42.262Z,1003.88
2022-12-22T01:39:42.249Z,1003.92
2022-12-22T01:40:42.239Z,1003.86
2022-12-22T01:41:42.232Z,1003.89
2022-12-22T01:42:42.224Z,1003.84
2022-12-22T01:43:42.202Z,1003.82
2022-12-22T01:44:42.198Z,1003.85
2022-12-22T01:45:42.189Z,1003.82
2022-12-22T01:46:42.317Z,1003.81
2022-12-22T01:47:42.189Z,1003.82
2022-12-22T01:48:42.147Z,1003.74
2022-12-22T01:49:42.138Z,1003.81
2022-12-22T01:50:42.127Z,1003.77
2022-12-22T01:51:42.113Z,1003.78
2022-12-22T01:52:42.104Z,1003.75
2022-12-22T01:53:42.116Z,1003.73
2022-12-22T01:54:42.081Z,1003.69
2022-12-22T01:55:42.073Z,1003.64
2022-12-22T01:56:42.056Z,1003.61
2022-12-22T01:57:42.058Z,1003.62
2022-12-22T01:58:42.035Z,1003.58
2022-12-22T01:59:42.101Z,1003.64
2022-12-22T02:00:42.015Z,1003.59
2022-12-22T02:01:42.121Z,1003.61
2022-12-22T02:02:42.160Z,1003.60
2022-12-22T02:03:42.121Z,1003.54
2022-12-22T02:04:41.969Z,1003.53
2022-12-22T02:05:41.966Z,1003.47
2022-12-22T02:06:41.945Z,1003.48
2022-12-22T02:07:41.933Z,1003.52
2022-12-22T02:08:41.924Z,1003.49
2022-12-22T02:09:41.913Z,1003.48
2022-12-22T02:10:41.910Z,1003.51
2022-12-22T02:11:41.909Z,1003.53
2022-12-22T02:12:41.880Z,1003.52
2022-12-22T02:13:41.869Z,1003.52
2022-12-22T02:14:41.855Z,1003.54
2022-12-22T02:15:41.941Z,1003.48
2022-12-22T02:16:41.844Z,1003.49
2022-12-22T02:17:41.831Z,1003.44
2022-12-22T02:18:41.814Z,1003.41
2022-12-22T02:19:41.828Z,1003.41
2022-12-22T02:20:41.789Z,1003.44
2022-12-22T02:21:41.777Z,1003.44
2022-12-22T02:22:41.766Z,1003.43
2022-12-22T02:23:41.792Z,1003.42
2022-12-22T02:24:41.744Z,1003.35
2022-12-22T02:25:41.734Z,1003.37
2022-12-22T02:26:41.723Z,1003.35
2022-12-22T02:27:41.713Z,1003.37
2022-12-22T02:28:41.700Z,1003.40
2022-12-22T02:29:41.694Z,1003.38
2022-12-22T02:30:41.676Z,1003.41
2022-12-22T02:31:41.747Z,1003.37
2022-12-22T02:32:41.689Z,1003.36
2022-12-22T02:33:41.645Z,1003.40
2022-12-22T02:34:41.632Z,1003.40
2022-12-22T02:35:41.648Z,1003.39
2022-12-22T02:36:41.608Z,1003.37
2022-12-22T02:37:41.600Z,1003.39
2022-12-22T02:38:41.586Z,1003.31
2022-12-22T02:39:41.573Z,1003.29
2022-12-22T02:40:42.012Z,1003.28
2022-12-22T02:41:41.593Z,1003.23
2022-12-22T02:42:41.538Z,1003.19
2022-12-22T02:43:41.529Z,1003.13
2022-12-22T02:44:41.518Z,1003.13
2022-12-22T02:45:41.516Z,1003.10
2022-12-22T02:46:41.611Z,1003.03
2022-12-22T02:47:41.495Z,1003.01
2022-12-22T02:48:41.472Z,1003.01
2022-12-22T02:49:41.459Z,1002.93
2022-12-22T02:50:41.453Z,1002.95
2022-12-22T02:51:41.472Z,1002.94
2022-12-22T02:52:41.434Z,1002.92
2022-12-22T02:53:41.423Z,1002.92
2022-12-22T02:54:41.415Z,1002.93
2022-12-22T02:55:41.395Z,1002.91
2022-12-22T02:56:41.387Z,1002.90
2022-12-22T02:57:41.373Z,1002.93
2022-12-22T02:58:41.363Z,1002.94
2022-12-22T02:59:41.384Z,1002.91
2022-12-22T03:00:41.339Z,1002.89
2022-12-22T03:01:41.584Z,1002.88
2022-12-22T03:02:41.548Z,1002.88
2022-12-22T03:03:41.596Z,1002.81
2022-12-22T03:04:41.294Z,1002.85
2022-12-22T03:05:41.293Z,1002.87
2022-12-22T03:06:41.273Z,1002.84
2022-12-22T03:07:41.284Z,1002.86
2022-12-22T03:08:41.280Z,1002.86
2022-12-22T03:09:41.241Z,1002.79
2022-12-22T03:10:41.230Z,1002.78
2022-12-22T03:11:41.226Z,1002.74
2022-12-22T03:12:41.207Z,1002.72
2022-12-22T03:13:41.201Z,1002.72
2022-12-22T03:14:41.182Z,1002.74
2022-12-22T03:15:41.216Z,1002.76
2022-12-22T03:16:41.331Z,1002.71
2022-12-22T03:17:41.177Z,1002.76
2022-12-22T03:18:41.138Z,1002.76
2022-12-22T03:19:41.125Z,1002.75
2022-12-22T03:20:41.115Z,1002.70
2022-12-22T03:21:41.104Z,1002.68
2022-12-22T03:22:41.094Z,1002.69
2022-12-22T03:23:41.602Z,1002.68
2022-12-22T03:24:41.083Z,1002.67
2022-12-22T03:25:41.077Z,1002.67
2022-12-22T03:26:41.048Z,1002.67
2022-12-22T03:27:41.034Z,1002.66
2022-12-22T03:28:41.025Z,1002.66
2022-12-22T03:29:41.025Z,1002.64
2022-12-22T03:30:41.003Z,1002.61
2022-12-22T03:31:41.034Z,1002.60
2022-12-22T03:32:40.985Z,1002.56
2022-12-22T03:33:40.970Z,1002.55
2022-12-22T03:34:40.957Z,1002.55
2022-12-22T03:35:40.955Z,1002.53
2022-12-22T03:36:40.935Z,1002.50
2022-12-22T03:37:40.924Z,1002.48
2022-12-22T03:38:40.913Z,1002.45
2022-12-22T03:39:40.930Z,1002.44
2022-12-22T03:40:40.898Z,1002.50
2022-12-22T03:41:40.887Z,1002.42
2022-12-22T03:42:40.873Z,1002.37
2022-12-22T03:43:40.862Z,1002.37
2022-12-22T03:44:40.857Z,1002.38
2022-12-22T03:45:40.855Z,1002.40
2022-12-22T03:46:40.884Z,1002.37
2022-12-22T03:47:40.818Z,1002.41
2022-12-22T03:48:40.801Z,1002.38
2022-12-22T03:49:40.795Z,1002.40
2022-12-22T03:50:40.776Z,1002.45
2022-12-22T03:51:40.767Z,1002.42
2022-12-22T03:52:40.754Z,1002.41
2022-12-22T03:53:40.777Z,1002.44
2022-12-22T03:54:40.746Z,1002.44
2022-12-22T03:55:40.752Z,1002.43
2022-12-22T03:56:40.728Z,1002.39
2022-12-22T03:57:40.700Z,1002.38
2022-12-22T03:58:40.692Z,1002.35
2022-12-22T03:59:40.683Z,1002.37
2022-12-22T04:00:40.746Z,1002.35
2022-12-22T04:01:40.844Z,1002.32
2022-12-22T04:02:40.820Z,1002.31
2022-12-22T04:03:40.635Z,1002.28
2022-12-22T04:04:40.625Z,1002.26
2022-12-22T04:05:40.690Z,1002.24
2022-12-22T04:06:40.614Z,1002.18
2022-12-22T04:07:40.589Z,1002.16
2022-12-22T04:08:40.577Z,1002.20
2022-12-22T04:09:40.566Z,1002.14
2022-12-22T04:10:40.556Z,1002.11
2022-12-22T04:11:40.572Z,1002.10
2022-12-22T04:12:40.531Z,1002.05
2022-12-22T04:13:40.529Z,1002.07
2022-12-22T04:14:40.512Z,1002.04
2022-12-22T04:15:40.505Z,1002.02
2022-12-22T04:16:40.613Z,1002.02
2022-12-22T04:17:40.487Z,1002.01
2022-12-22T04:18:40.469Z,1001.99
2022-12-22T04:19:40.453Z,1001.94
2022-12-22T04:20:40.452Z,1001.97
2022-12-22T04:21:40.432Z,1001.95
2022-12-22T04:22:40.420Z,1001.97
2022-12-22T04:23:40.415Z,1001.94
2022-12-22T04:24:40.397Z,1001.97
2022-12-22T04:25:40.414Z,1001.93
2022-12-22T04:26:40.378Z,1001.92
2022-12-22T04:27:40.381Z,1001.94
2022-12-22T04:28:40.434Z,1001.99
2022-12-22T04:29:40.389Z,1001.99
2022-12-22T04:30:40.331Z,1001.95
2022-12-22T04:31:40.351Z,1001.98
2022-12-22T04:32:40.308Z,1001.95
2022-12-22T04:33:40.301Z,1001.95
2022-12-22T04:34:40.296Z,1001.97
2022-12-22T04:35:40.296Z,1001.93
2022-12-22T04:36:40.264Z,1001.88
2022-12-22T04:37:40.251Z,1001.89
2022-12-22T04:38:40.243Z,1001.87
2022-12-22T04:39:40.228Z,1001.86
2022-12-22T04:40:40.217Z,1001.81
2022-12-22T04:41:40.236Z,1001.78
2022-12-22T04:42:40.196Z,1001.75
2022-12-22T04:43:40.211Z,1001.77
2022-12-22T04:44:40.184Z,1001.79
2022-12-22T04:45:40.256Z,1001.79
2022-12-22T04:46:40.151Z,1001.80
2022-12-22T04:47:40.155Z,1001.75
2022-12-22T04:48:40.131Z,1001.56
2022-12-22T04:49:40.117Z,1001.61
2022-12-22T04:50:40.110Z,1001.67
2022-12-22T04:51:40.097Z,1001.73
2022-12-22T04:52:40.087Z,1001.65
2022-12-22T04:53:40.082Z,1001.71
2022-12-22T04:54:40.064Z,1001.61
2022-12-22T04:55:40.053Z,1001.62
2022-12-22T04:56:40.038Z,1001.63
2022-12-22T04:57:41.062Z,1001.60
2022-12-22T04:58:40.021Z,1001.59
2022-12-22T04:59:40.065Z,1001.58
2022-12-22T05:00:39.994Z,1001.58
2022-12-22T05:01:40.232Z,1001.60
2022-12-22T05:02:40.231Z,1001.56
2022-12-22T05:03:40.047Z,1001.55
2022-12-22T05:04:39.970Z,1001.54
2022-12-22T05:05:39.984Z,1001.50
2022-12-22T05:06:39.928Z,1001.50
2022-12-22T05:07:39.927Z,1001.53
2022-12-22T05:08:39.927Z,1001.49
2022-12-22T05:09:39.893Z,1001.49
2022-12-22T05:10:39.885Z,1001.53
2022-12-22T05:11:39.902Z,1001.53
2022-12-22T05:12:39.884Z,1001.55
2022-12-22T05:13:39.850Z,1001.46
2022-12-22T05:14:39.837Z,1001.52
2022-12-22T05:15:39.849Z,1001.51
2022-12-22T05:16:39.969Z,1001.48
2022-12-22T05:17:39.823Z,1001.49
2022-12-22T05:18:39.809Z,1001.47
2022-12-22T05:19:39.781Z,1001.45
2022-12-22T05:20:39.771Z,1001.44
2022-12-22T05:21:39.758Z,1001.40
2022-12-22T05:22:39.748Z,1001.43
2022-12-22T05:23:39.755Z,1001.42
2022-12-22T05:24:39.731Z,1001.43
2022-12-22T05:25:39.715Z,1001.36
2022-12-22T05:26:39.741Z,1001.33
2022-12-22T05:27:39.691Z,1001.35
2022-12-22T05:28:39.690Z,1001.35
2022-12-22T05:29:39.676Z,1001.33
2022-12-22T05:30:39.727Z,1001.27
2022-12-22T05:31:46.751Z,1001.27
2022-12-22T05:32:40.663Z,1001.24
2022-12-22T05:33:39.627Z,1001.29
2022-12-22T05:34:39.628Z,1001.29
2022-12-22T05:35:39.642Z,1001.29
2022-12-22T05:36:39.590Z,1001.24
2022-12-22T05:37:39.576Z,1001.23
2022-12-22T05:38:39.568Z,1001.25
2022-12-22T05:39:39.562Z,1001.20
2022-12-22T05:40:39.558Z,1001.17
2022-12-22T05:41:39.546Z,1001.21
2022-12-22T05:42:39.718Z,1001.19
2022-12-22T05:43:39.525Z,1001.14
2022-12-22T05:44:39.512Z,1001.10
2022-12-22T05:45:39.535Z,1001.08
2022-12-22T05:46:39.570Z,1001.04
2022-12-22T05:47:39.494Z,1001.04
2022-12-22T05:48:40.157Z,1001.06
2022-12-22T05:49:39.446Z,1001.05
2022-12-22T05:50:39.434Z,1000.99
2022-12-22T05:51:39.427Z,1000.98
2022-12-22T05:52:39.419Z,1000.94
2022-12-22T05:53:39.419Z,1000.93
2022-12-22T05:54:39.404Z,1000.89
2022-12-22T05:56:55.047Z,1000.97
2022-12-22T05:57:55.032Z,1000.92
2022-12-22T05:58:55.041Z,1000.94
2022-12-22T05:59:55.010Z,1000.92
2022-12-22T06:00:55.000Z,1000.87
2022-12-22T06:01:55.025Z,1000.84
2022-12-22T06:02:55.160Z,1000.82
2022-12-22T06:04:00.069Z,1000.80
2022-12-22T06:04:55.969Z,1000.78
2022-12-22T06:05:54.943Z,1000.78
2022-12-22T06:06:54.932Z,1000.76
2022-12-22T06:07:54.921Z,1000.74
2022-12-22T06:08:54.910Z,1000.77
2022-12-22T06:09:54.898Z,1000.77
2022-12-22T06:10:54.894Z,1000.83
2022-12-22T06:11:54.877Z,1000.74
2022-12-22T06:12:54.868Z,1000.72
2022-12-22T06:13:54.859Z,1000.69
2022-12-22T06:14:54.843Z,1000.67
2022-12-22T06:15:54.921Z,1000.67
2022-12-22T06:16:54.852Z,1000.66
2022-12-22T06:17:54.812Z,1000.68
2022-12-22T06:18:54.825Z,1000.66
2022-12-22T06:19:54.793Z,1000.63
2022-12-22T06:20:54.782Z,1000.64
2022-12-22T06:21:54.766Z,1000.61
2022-12-22T06:22:54.771Z,1000.61
2022-12-22T06:23:54.754Z,1000.60
2022-12-22T06:24:54.730Z,1000.60
2022-12-22T06:25:54.719Z,1000.56
2022-12-22T06:26:54.711Z,1000.57
2022-12-22T06:27:54.714Z,1000.56
2022-12-22T06:28:54.691Z,1000.55
2022-12-22T06:29:54.676Z,1000.52
2022-12-22T06:30:54.740Z,1000.46
2022-12-22T06:31:54.652Z,1000.48
2022-12-22T06:32:54.641Z,1000.44
2022-12-22T06:33:54.631Z,1000.42
2022-12-22T06:34:54.645Z,1000.44
2022-12-22T06:35:58.857Z,1000.50
2022-12-22T06:36:54.596Z,1000.48
2022-12-22T06:37:54.589Z,1000.49
2022-12-22T06:38:54.579Z,1000.49
2022-12-22T06:39:54.568Z,1000.47
2022-12-22T06:40:54.594Z,1000.44
2022-12-22T06:41:54.543Z,1000.45
2022-12-22T06:42:54.545Z,1000.41
2022-12-22T06:43:54.520Z,1000.42
2022-12-22T06:44:54.511Z,1000.54
2022-12-22T06:45:54.544Z,1000.43
2022-12-22T06:46:54.577Z,1000.44
2022-12-22T06:47:54.504Z,1000.45
2022-12-22T06:48:54.471Z,1000.48
2022-12-22T06:49:54.450Z,1000.44
2022-12-22T06:50:54.474Z,1000.45
2022-12-22T06:51:54.429Z,1000.46
2022-12-22T06:52:54.424Z,1000.43
2022-12-22T06:53:54.405Z,1000.45
2022-12-22T06:54:54.396Z,1000.45
2022-12-22T06:55:54.382Z,1000.42
2022-12-22T06:56:54.375Z,1000.37
2022-12-22T06:57:54.362Z,1000.36
2022-12-22T06:58:54.372Z,1000.40
2022-12-22T06:59:57.656Z,1000.35
2022-12-22T07:00:54.328Z,1000.34
2022-12-22T07:01:54.413Z,1000.32
2022-12-22T07:02:54.523Z,1000.29
2022-12-22T07:03:54.361Z,1000.36
2022-12-22T07:04:54.291Z,1000.38
2022-12-22T07:05:54.273Z,1000.33
2022-12-22T07:06:54.290Z,1000.39
2022-12-22T07:07:54.246Z,1000.42
2022-12-22T07:08:54.241Z,1000.42
2022-12-22T07:09:54.259Z,1000.44
2022-12-22T07:10:54.243Z,1000.49
2022-12-22T07:11:54.213Z,1000.50
2022-12-22T07:12:54.193Z,1000.51
2022-12-22T07:13:54.181Z,1000.45
2022-12-22T07:14:54.172Z,1000.48
2022-12-22T07:16:02.244Z,1000.45
2022-12-22T07:16:55.153Z,1000.45
2022-12-22T07:17:54.137Z,1000.35
2022-12-22T07:18:54.130Z,1000.35
2022-12-22T07:19:54.121Z,1000.36
2022-12-22T07:20:54.104Z,1000.31
2022-12-22T07:21:54.106Z,1000.32
2022-12-22T07:22:54.153Z,1000.34
2022-12-22T07:23:54.070Z,1000.28
2022-12-22T07:24:54.059Z,1000.21
2022-12-22T07:25:54.057Z,1000.20
2022-12-22T07:26:54.035Z,1000.16
2022-12-22T07:27:54.031Z,1000.19
2022-12-22T07:28:54.019Z,1000.18
2022-12-22T07:29:54.016Z,1000.16
2022-12-22T07:30:54.048Z,1000.16
2022-12-22T07:31:54.069Z,1000.15
2022-12-22T07:32:53.969Z,1000.19
2022-12-22T07:33:53.958Z,1000.16
2022-12-22T07:34:53.968Z,1000.18
2022-12-22T07:35:53.935Z,1000.15
2022-12-22T07:36:53.925Z,1000.14
2022-12-22T07:37:53.912Z,1000.14
2022-12-22T07:38:53.941Z,1000.15
2022-12-22T07:39:53.893Z,1000.18
2022-12-22T07:40:55.994Z,1000.20
2022-12-22T07:41:53.884Z,1000.19
2022-12-22T07:42:53.856Z,1000.18
2022-12-22T07:43:53.845Z,1000.18
2022-12-22T07:44:53.836Z,1000.16
2022-12-22T07:45:53.828Z,1000.09
2022-12-22T07:46:53.884Z,1000.16
2022-12-22T07:47:53.802Z,1000.12
2022-12-22T07:48:53.792Z,1000.13
2022-12-22T07:49:53.779Z,1000.13
2022-12-22T07:50:53.768Z,1000.13
2022-12-22T07:51:53.757Z,1000.08
2022-12-22T07:52:53.776Z,1000.08
2022-12-22T07:53:53.735Z,1000.05
2022-12-22T07:54:53.739Z,1000.02
2022-12-22T07:55:53.712Z,999.98
2022-12-22T07:56:53.712Z,999.96
2022-12-22T07:57:53.691Z,999.96
2022-12-22T07:58:53.684Z,999.95
2022-12-22T07:59:53.667Z,999.93
2022-12-22T08:00:53.655Z,999.95
2022-12-22T08:01:53.779Z,999.89
2022-12-22T08:02:53.880Z,999.89
2022-12-22T08:03:53.623Z,999.88
2022-12-22T08:04:53.689Z,999.88
2022-12-22T08:05:53.602Z,999.88
2022-12-22T08:06:53.592Z,999.88
2022-12-22T08:07:53.577Z,999.89
2022-12-22T08:08:53.567Z,999.90
2022-12-22T08:09:53.556Z,999.89
2022-12-22T08:10:53.570Z,999.92
2022-12-22T08:11:53.561Z,999.91
2022-12-22T08:12:53.595Z,999.91
2022-12-22T08:13:59.233Z,999.90
2022-12-22T08:14:54.498Z,999.90
2022-12-22T08:15:53.519Z,999.83
2022-12-22T08:16:53.576Z,999.87
2022-12-22T08:17:53.470Z,999.88
2022-12-22T08:18:53.465Z,999.85
2022-12-22T08:19:53.443Z,999.83
2022-12-22T08:20:53.437Z,999.82
2022-12-22T08:21:53.591Z,999.82
2022-12-22T08:22:53.416Z,999.83
2022-12-22T08:23:53.398Z,999.78
2022-12-22T08:24:53.387Z,999.74
2022-12-22T08:25:53.377Z,999.75
2022-12-22T08:26:53.382Z,999.74
2022-12-22T08:27:53.362Z,999.74
2022-12-22T08:28:53.358Z,999.78
2022-12-22T08:29:53.332Z,999.67
2022-12-22T08:30:53.331Z,999.78
2022-12-22T08:31:53.380Z,999.73
2022-12-22T08:32:53.299Z,999.68
2022-12-22T08:33:53.291Z,999.74
2022-12-22T08:34:53.314Z,999.73
2022-12-22T08:35:53.266Z,999.69
2022-12-22T08:36:53.253Z,999.68
2022-12-22T08:37:53.256Z,999.74
2022-12-22T08:38:53.229Z,999.72
2022-12-22T08:39:53.224Z,999.69
2022-12-22T08:40:53.219Z,999.76
2022-12-22T08:41:53.197Z,999.65
2022-12-22T08:42:53.203Z,999.66
2022-12-22T08:43:53.180Z,999.66
2022-12-22T08:44:53.342Z,999.65
2022-12-22T08:45:53.176Z,999.63
2022-12-22T08:46:53.245Z,999.61
2022-12-22T08:47:53.130Z,999.65
2022-12-22T08:48:53.118Z,999.58
2022-12-22T08:49:53.108Z,999.60
2022-12-22T08:50:53.096Z,999.59
2022-12-22T08:51:53.081Z,999.59
2022-12-22T08:52:53.086Z,999.63
2022-12-22T08:54:07.950Z,999.57
2022-12-22T08:54:54.055Z,999.50
2022-12-22T08:55:53.046Z,999.52
2022-12-22T08:56:53.027Z,999.57
2022-12-22T08:57:56.220Z,999.50
2022-12-22T08:58:53.035Z,999.47
2022-12-22T08:59:53.006Z,999.50
2022-12-22T09:00:53.070Z,999.46
2022-12-22T09:01:53.096Z,999.43
2022-12-22T09:02:53.223Z,999.43
2022-12-22T09:03:52.953Z,999.42
2022-12-22T09:04:52.945Z,999.38
2022-12-22T09:05:52.934Z,999.42
2022-12-22T09:06:52.923Z,999.41
2022-12-22T09:07:52.911Z,999.39
2022-12-22T09:08:52.899Z,999.37
2022-12-22T09:09:52.885Z,999.43
2022-12-22T09:10:52.879Z,999.36
2022-12-22T09:11:52.860Z,999.35
2022-12-22T09:12:52.847Z,999.31
2022-12-22T09:13:52.841Z,999.28
2022-12-22T09:14:52.849Z,999.34
2022-12-22T09:15:52.816Z,999.30
2022-12-22T09:16:52.940Z,999.31
2022-12-22T09:17:52.794Z,999.32
2022-12-22T09:18:52.799Z,999.24
2022-12-22T09:19:52.778Z,999.28
2022-12-22T09:20:52.760Z,999.29
2022-12-22T09:21:52.750Z,999.28
2022-12-22T09:22:52.765Z,999.30
2022-12-22T09:23:52.729Z,999.20
2022-12-22T09:24:52.723Z,999.21
2022-12-22T09:25:52.704Z,999.22
2022-12-22T09:26:52.694Z,999.21
2022-12-22T09:27:52.679Z,999.20
2022-12-22T09:28:52.697Z,999.20
2022-12-22T09:29:52.659Z,999.14
2022-12-22T09:30:52.693Z,999.13
2022-12-22T09:31:52.681Z,999.12
2022-12-22T09:32:52.627Z,999.12
2022-12-22T09:33:52.633Z,999.13
2022-12-22T09:34:52.608Z,999.14
2022-12-22T09:35:52.591Z,999.13
2022-12-22T09:36:52.581Z,999.18
2022-12-22T09:37:52.573Z,999.12
2022-12-22T09:38:52.567Z,999.13
2022-12-22T09:39:52.555Z,999.11
2022-12-22T09:40:52.545Z,999.08
2022-12-22T09:41:52.522Z,999.09
2022-12-22T09:42:52.529Z,999.10
2022-12-22T09:43:52.504Z,999.12
2022-12-22T09:44:52.505Z,999.10
2022-12-22T09:45:52.526Z,999.08
2022-12-22T09:46:52.492Z,998.99
2022-12-22T09:47:52.460Z,998.99
2022-12-22T09:48:52.458Z,998.98
2022-12-22T09:49:52.435Z,998.98
2022-12-22T09:50:52.454Z,998.95
2022-12-22T09:51:52.435Z,998.96
2022-12-22T09:52:52.437Z,998.95
2022-12-22T09:53:52.391Z,998.93
2022-12-22T09:54:52.380Z,998.86
2022-12-22T09:55:52.377Z,998.86
2022-12-22T09:56:52.385Z,998.86
2022-12-22T09:57:52.361Z,998.90
2022-12-22T09:58:52.345Z,998.93
2022-12-22T09:59:52.324Z,998.82
2022-12-22T10:00:52.353Z,998.86
2022-12-22T10:01:52.480Z,998.90
2022-12-22T10:02:52.350Z,998.83
2022-12-22T10:03:58.174Z,998.81
2022-12-22T10:04:53.274Z,998.84
2022-12-22T10:05:52.257Z,998.79
2022-12-22T10:06:52.244Z,998.77
2022-12-22T10:07:52.237Z,998.85
2022-12-22T10:08:52.222Z,998.78
2022-12-22T10:09:52.482Z,998.82
2022-12-22T10:10:52.205Z,998.84
2022-12-22T10:11:52.197Z,998.77
2022-12-22T10:12:52.177Z,998.81
2022-12-22T10:13:52.168Z,998.78
2022-12-22T10:14:52.156Z,998.73
2022-12-22T10:15:52.147Z,998.76
2022-12-22T10:16:52.224Z,998.77
2022-12-22T10:17:52.125Z,998.75
2022-12-22T10:18:52.129Z,998.75
2022-12-22T10:19:52.098Z,998.73
2022-12-22T10:20:52.092Z,998.74
2022-12-22T10:21:52.075Z,998.78
2022-12-22T10:22:52.084Z,998.73
2022-12-22T10:23:52.050Z,998.72
2022-12-22T10:24:52.045Z,998.71
2022-12-22T10:26:26.817Z,998.69
2022-12-22T10:26:53.023Z,998.68
2022-12-22T10:27:52.009Z,998.65
2022-12-22T10:28:52.006Z,998.62
2022-12-22T10:29:51.998Z,998.67
2022-12-22T10:30:51.975Z,998.61
2022-12-22T10:31:52.026Z,998.56
2022-12-22T10:32:51.953Z,998.53
2022-12-22T10:33:51.943Z,998.50
2022-12-22T10:34:51.966Z,998.48
2022-12-22T10:35:51.917Z,998.46
2022-12-22T10:36:51.909Z,998.44
2022-12-22T10:37:51.903Z,998.45
2022-12-22T10:38:51.888Z,998.39
2022-12-22T10:39:51.875Z,998.39
2022-12-22T10:40:55.277Z,998.40
2022-12-22T10:41:52.851Z,998.41
2022-12-22T10:42:51.855Z,998.35
2022-12-22T10:43:51.835Z,998.38
2022-12-22T10:44:51.845Z,998.38
2022-12-22T10:45:51.877Z,998.37
2022-12-22T10:46:51.848Z,998.41
2022-12-22T10:47:51.785Z,998.38
2022-12-22T10:48:51.779Z,998.36
2022-12-22T10:50:22.119Z,998.35
2022-12-22T10:51:22.081Z,998.30
2022-12-22T10:52:27.681Z,998.28
2022-12-22T10:53:23.065Z,998.28
2022-12-22T10:54:22.047Z,998.26
2022-12-22T10:55:22.046Z,998.23
2022-12-22T10:56:22.112Z,998.23
2022-12-22T10:57:22.156Z,998.26
2022-12-22T10:58:22.023Z,998.23
2022-12-22T10:59:21.995Z,998.27
2022-12-22T11:00:21.984Z,998.26
2022-12-22T11:01:22.030Z,998.29
2022-12-22T11:02:22.270Z,998.31
2022-12-22T11:03:24.626Z,998.27
2022-12-22T11:04:21.941Z,998.29
2022-12-22T11:05:21.936Z,998.25
2022-12-22T11:06:21.937Z,998.23
2022-12-22T11:07:21.964Z,998.21
2022-12-22T11:08:21.908Z,998.18
2022-12-22T11:09:33.927Z,998.18
2022-12-22T11:10:22.880Z,998.21
2022-12-22T11:11:21.862Z,998.20
2022-12-22T11:12:21.848Z,998.19
2022-12-22T11:13:21.843Z,998.18
2022-12-22T11:14:21.825Z,998.16
2022-12-22T11:15:24.510Z,998.16
2022-12-22T11:16:21.844Z,998.08
2022-12-22T11:17:21.793Z,998.12
2022-12-22T11:18:21.780Z,998.07
2022-12-22T11:19:21.770Z,998.05
2022-12-22T11:20:21.756Z,998.02
2022-12-22T11:21:24.282Z,998.09
2022-12-22T11:22:21.771Z,998.03
2022-12-22T11:23:21.739Z,998.02
2022-12-22T11:24:21.759Z,998.01
2022-12-22T11:25:21.702Z,997.94
2022-12-22T11:26:21.690Z,997.96
2022-12-22T11:27:21.677Z,998.05
2022-12-22T11:28:21.673Z,998.01
2022-12-22T11:29:21.665Z,997.90
2022-12-22T11:30:21.647Z,997.93
2022-12-22T11:31:21.762Z,998.01
2022-12-22T11:32:21.624Z,997.95
2022-12-22T11:33:21.614Z,997.88
2022-12-22T11:34:21.846Z,997.92
2022-12-22T11:35:21.594Z,998.01
2022-12-22T11:36:21.578Z,997.92
2022-12-22T11:37:21.569Z,997.87
2022-12-22T11:38:21.707Z,997.88
2022-12-22T11:39:21.545Z,997.88
2022-12-22T11:40:21.540Z,997.90
2022-12-22T11:41:21.541Z,997.94
2022-12-22T11:42:21.522Z,997.86
2022-12-22T11:43:21.506Z,997.90
2022-12-22T11:44:21.491Z,997.91
2022-12-22T11:45:21.479Z,997.83
2022-12-22T11:46:21.578Z,997.86
2022-12-22T11:47:21.459Z,997.84
2022-12-22T11:48:21.458Z,997.87
2022-12-22T11:49:21.432Z,997.81
2022-12-22T11:51:00.895Z,997.80
2022-12-22T11:51:27.243Z,997.78
2022-12-22T11:52:22.406Z,997.79
2022-12-22T11:53:21.392Z,997.80
2022-12-22T11:54:21.411Z,997.81
2022-12-22T11:55:21.366Z,997.86
2022-12-22T11:56:21.358Z,997.81
2022-12-22T11:57:21.357Z,997.78
2022-12-22T11:58:21.335Z,997.78
2022-12-22T11:59:21.330Z,997.76
2022-12-22T12:00:25.189Z,997.77
2022-12-22T12:01:26.266Z,997.74
2022-12-22T12:02:21.426Z,997.79
2022-12-22T12:03:21.421Z,997.74
2022-12-22T12:04:21.324Z,997.73
2022-12-22T12:05:21.269Z,997.81
2022-12-22T12:06:21.242Z,997.75
2022-12-22T12:07:25.619Z,997.73
2022-12-22T12:08:22.227Z,997.76
2022-12-22T12:09:21.211Z,997.73
2022-12-22T12:10:21.220Z,997.75
2022-12-22T12:11:21.189Z,997.80
2022-12-22T12:12:21.180Z,997.80
2022-12-22T12:13:28.752Z,997.81
2022-12-22T12:14:22.160Z,997.81
2022-12-22T12:15:21.142Z,997.82